EGAA/BFS METAR and TAF weather

Enter ICAO airport designator
Station Type Date Time Source
EGAA METAR 2018/10/21 05:20 UTC NOAA

EGAA 210520Z 22009KT 9999 OVC006 15/14 Q1022


Station Type Date Time Source
EGAA Decoded METAR 2018/10/21 05:20 UTC NOAA

Belfast / Aldergrove Airport, United Kingdom (EGAA) 54-39N 006-13W 0M
Oct 21, 2018 - 01:20 AM EDT / 2018.10.21 0520 UTC
Wind: from the SW (220 degrees) at 10 MPH (9 KT):0
Visibility: greater than 7 mile(s):0
Sky conditions: overcast
Temperature: 59 F (15 C)
Dew Point: 57 F (14 C)
Relative Humidity: 93%
Pressure (altimeter): 30.18 in. Hg (1022 hPa)
ob: EGAA 210520Z 22009KT 9999 OVC006 15/14 Q1022
cycle: 5

Station Type Date Time Source
EGAA TAF 2018/10/21 06:09 UTC NOAA

TAF TAF EGAA 210506Z 2106/2206 22010KT 9999 SCT008 BKN045
TEMPO 2106/2111 BKN008 PROB30
TEMPO 2106/2108 BKN003
BECMG 2108/2111 29010KT
TEMPO 2108/2112 7000 RA -RADZ PROB30
TEMPO 2111/2114 BKN014


Example: see airport list